Relevés horaires Matro (Suisse)


Relevés horaires à Matro - Vendredi 04 Juill. 2014
Heure UTC1 Température [°C] Vent [km/h] Hum. [%] Pres.4 [hPa] Visi. [Km] Nébu. [octa] Préc.5 [mm] Cond.
2m. Res. Ros. Dir.2 Vit. Moy. Raf.3
23:00 6.3 3.4 6.2 S 14.8 24.1 31.5 99 850(-0.7/3h) -- -- -- --
22:00 6.2 2.5 4.4 SSO 20.4 37.0 55.6 88 850(-0.7/3h) -- -- -- --
21:00 6.8 2 6.7 S 35.2 38.9 46.3 99 850(-1.4/3h) -- -- -- --
20:00 7.8 4.2 5.8 SSE 24.1 33.3 44.4 87 850(-1.1/3h) -- -- -- --
19:00 7.2 2.7 5.8 SE 33.3 38.9 42.6 91 850(-2.2/3h) -- -- -- --
18:00 7.1 3.5 6.2 SSE 22.2 46.3 57.4 94 850(-1.7/3h) -- -- -- --
17:00 7.8 4.8 4.1 E 18.5 24.1 31.5 77 850(-3.1/3h) -- -- -- --
16:00 6.8 2.1 5.7 SE 33.3 31.5 40.7 93 850(-1.5/3h) -- -- -- --
15:00 7.8 5.2 6.8 E 14.8 46.3 57.4 93 850(-1.4/3h) -- -- -- --
14:00 8.2 3.6 7.2 SSE 38.9 40.7 48.2 93 850(-0.3/3h) -- -- -- --
13:00 8.4 3.8 7.4 SSE 40.7 46.3 55.6 93 850(-1.0/3h) -- -- -- --
12:00 9.9 6.5 6.2 SSE 29.6 37.0 44.4 78 850(-1.0/3h) -- -- -- --
11:00 9.1 5.4 6.3 SSE 29.6 37.0 44.4 83 850(-0.2/3h) -- -- -- --
10:00 9.1 5.3 7.3 SE 31.5 31.5 38.9 88 850(0.0/3h) -- -- -- --
09:00 9.3 5.6 7.2 SSE 31.5 31.5 37.0 87 850(-0.7/3h) -- -- -- --
08:00 9.5 7.1 6.9 SSE 16.7 18.5 22.2 84 850(-1.0/3h) -- -- -- --
07:00 9.1 6 6.7 SE 22.2 24.1 29.6 85 850(-1.2/3h) -- -- -- --
06:00 9.7 7.3 6.1 ESE 16.7 25.9 35.2 78 850(-1.4/3h) -- -- -- --
05:00 9.2 7.2 6.1 E 13.0 14.8 16.7 81 850(-1.0/3h) -- -- -- --
04:00 8.0 4.8 7.4 ESE 20.4 25.9 35.2 96 850(-0.8/3h) -- -- -- --
03:00 8.1 4.6 7.9 SE 24.1 22.2 27.8 99 850(-0.4/3h) -- -- -- --
02:00 8.0 5.5 7.9 SSE 14.8 14.8 16.7 99 850(-1.5/3h) -- -- -- --
01:00 9.1 7.7 6.6 ESE 9.3 13.0 14.8 84 850(-1.2/3h) -- -- -- --
00:00 8.5 7 7.9 ESE 9.3 11.1 18.5 96 850(-0.7/3h) -- -- -- --

1 Coordinated Universal Time. Actuellement il est 21:00 locale et 19:00 UTC.

2 Le vent souffle depuis la direction indiquée vers la direction oposée.

3 Les rafales max. sont disponible 40 min après l'heure du relevé.

4 Pour les stations d'altitude (plus de 600m) le géopotentiel du niveau le plus proche de la pression obligatoire est indiqué.

5 Les stations disposant d'un diffuseur peuvent indiquer "trace". Cela signifie que des précipitations ont touchés le sol mais que la quantité est inférieure à 0.1 mm.

Copyright

Les données affichées sur cette page sont la propriété exclusive de Météo Suisse.

Récapitulatif de la journée
Température [°C] Vent [km/h] Ensoleillement4 [h] Precipitations totale5 [mm] Pression [Hpa]
Min1 Max.2 Moy.3 Max. Min Max.
7.8 10.1 29.8 57.4 0 h 24 min 0 850.0 850.0

1 Température minimale relevée entre 18:00 UTC la veille et 18:00 UTC le jour donné.

2 Température maximale relevée entre 06:00 UTC le jour donné et 06:00 UTC le lendemain.

3 Vent moyen de la journée basé sur les relevés horaires.

4 Ensoleillement en heures relevé entre 06:00 UTC la veille et 06:00 UTC le jour donné.

5 Précipitations totales tombées entre 06:00 UTC la jour donné et 06:00 UTC le lendemain.

Graphiques horaires